Banjul, The Gambia
Current Conditions -  °F | °C
As of 1:00 PM on Friday 24 Oct 2014 (Local Time) from GBYD Reporting Station
Broken Clouds Broken Clouds  
Wind Chill: 90°   Ceiling: 1300
Heat Index: 100°   Visibility: 6mi
Dew Point: 75°   Wind: 12mph
Humidity: 62%   Direction: 330°NNW
Pressure: 29.85"   Gusts: NA
Location:  13.46°N, 16.6°W
Report Text: GBYD 241300Z 33010KT 9999 BKN013 32/24 Q1011
Loading
Personal Weather Stations






























Interactive Weather Map
Tropical Storm Tracking
New forecast layout! Learn more

10-Day Weather Forecast

Advertisements
Track Severe Weather on mobile